John F Kennedy International Airport
KJFK : now visible

Airfield :











YOU CAN JOIN US ON...

 
LOGIN :

Register | Disclaimer

   EN    FR    IT 

 









Legend :    VFR   Marginal VFR   IFR   Intensive IFR   Very Intensive IFR
Visi :
Ceiling :
>= 8 km
>= 3000ft
5 to 8 km
1000 to 3000 ft
1500m to 5 km
500 to 1000 ft
800 to 1500m
200 to 500 ft
< 800m
< 200 ft
Symbols :   Thunderstorms  Fog  Heavy snow  Heavy precipitations  Wind > 20 kt






- Airport Elevation : 13 ft
- IATA code : JFK


KJFK - John F Kennedy International

CURRENT METAR :
  • 260551Z 13005KT 10SM BKN055 BKN070 OVC095 13/12 A3014 RMK AO2 SLP206 T01280122 10128 20083 58024 $

EXPIRED METARs :
  • 260451Z 13005KT 10SM BKN055 OVC075 12/12 A3017 RMK AO2 SLP216 T01220117 401280056 $
  • 260351Z 16005KT 10SM BKN050 OVC075 12/10 A3019 RMK AO2 SLP223 T01170100 $

TAF KJFK
Valid from the 26 at 06:00 until the 27 at 12:00 UTC


260526Z 2606/2712 17007KT P6SM VCSH OVC050
FM260900 19010KT 5SM -RA BR FEW015 OVC025
FM261300 19012KT 2SM SHRA BR BKN007 OVC012
FM261800 21010KT 5SM -SHRA BR BKN015 OVC025
FM262100 23006KT P6SM VCSH SCT015 BKN025 OVC070
FM262300 28008KT P6SM SCT070 SCT250
FM270800 30006KT P6SM SCT250
KZNY FIR / North America



MET'MAP, your aeronautical weather chart ! - Copyright ORBIFLY December 2007 - Disclaimer

ORBIFLY MET'MAP TEAM :

Programming & Development : Alexandra Zaïnal
Concept & original design : Baudouin d'Aumeries
Assistance for programming : Marc-Olivier Méhu
Technical & hardware support : Manuel Goepfert

Contact : metmap@orbifly.com




SOURCES & CREDITS :

   NOAA       Earth
Advisory